PWSweather.com
Personal Weather Stations
Station Observations
KAZTUCSO57
Countryside Manor, Tucson, AZ 85742

Countryside ManorTucson, AZ 85742

Lat: 32.3692, Lon: -111.066

Elevation: 2307

Station Type: Davis VP Pro+ 6163

http://frogville.us

Latest ConditionsUpdated 9:10:00 AM MST Thursday, Mar 23, 2017
Currently Today's Max Today's Min Today's Average
Temperature 58.1°F14.5°C 64.9°F18.3°C 51.5°F10.8°C 57.9°F14.4°C
Dew Point 44.3°F6.8°C 48.1°F8.9°C 44.3°F6.8°C 46.5°F8.1°C
Winds 3.5 mph WSW5.6 kmh WSW 6.9 mph SW11.1 kmh SW - 1.5 mph 2.4 kmh
Wind Gusts 5.8 mph9.3 kmh 11.5 mph18.5 kmh - -
Humidity 60% 84% 51% 67%
Pressure 29.90 in1012.5 mb 29.90 in1012.5 mb 29.74 in1007.1 mb -
Precipitation - 0.03 in0.8 mm - -
Hour Temp Dew Point Humidity Winds Wind Gusts Pressure Precip Precip Rate Daily Precip Total
09:10 AM 58.1°F14.5°C 44.3°F6.8°C 60% 3.5 mph WSW5.6 kmh WSW 5.8 mph9.3 kmh 29.90 in1012.5 mb - 0.00 in0.0 mm 0.03 in0.8 mm
09:00 AM 57.9°F14.4°C 44.5°F6.9°C 61% Calm Calm 1.2 mph1.9 kmh 29.89 in1012.2 mb - 0.00 in0.0 mm 0.03 in0.8 mm
08:50 AM 57.5°F14.2°C 45.0°F7.2°C 63% 1.2 mph WNW1.9 kmh WNW 1.2 mph1.9 kmh 29.88 in1011.9 mb - 0.00 in0.0 mm 0.03 in0.8 mm
08:40 AM 56.9°F13.8°C 45.7°F7.6°C 66% Calm Calm 2.3 mph3.7 kmh 29.88 in1011.9 mb - 0.00 in0.0 mm 0.03 in0.8 mm
08:30 AM 56.1°F13.4°C 45.6°F7.6°C 68% Calm Calm 1.2 mph1.9 kmh 29.87 in1011.5 mb - 0.00 in0.0 mm 0.03 in0.8 mm
08:20 AM 54.7°F12.6°C 46.2°F7.9°C 73% 1.2 mph NNE1.9 kmh NNE 3.5 mph5.6 kmh 29.87 in1011.5 mb - 0.00 in0.0 mm 0.03 in0.8 mm
08:10 AM 53.8°F12.1°C 46.0°F7.8°C 75% 1.2 mph NW1.9 kmh NW 2.3 mph3.7 kmh 29.87 in1011.5 mb - 0.00 in0.0 mm 0.03 in0.8 mm
08:00 AM 53.2°F11.8°C 46.5°F8.1°C 78% 1.2 mph 1.9 kmh 4.6 mph7.4 kmh 29.86 in1011.2 mb - 0.00 in0.0 mm 0.03 in0.8 mm
07:50 AM 52.6°F11.4°C 46.6°F8.1°C 80% Calm Calm 1.2 mph1.9 kmh 29.87 in1011.5 mb - 0.00 in0.0 mm 0.03 in0.8 mm
07:40 AM 52.3°F11.3°C 47.0°F8.3°C 82% 1.2 mph N1.9 kmh N 2.3 mph3.7 kmh 29.86 in1011.2 mb - 0.00 in0.0 mm 0.03 in0.8 mm
07:30 AM 51.8°F11.0°C 46.8°F8.2°C 83% 1.2 mph WSW1.9 kmh WSW 3.5 mph5.6 kmh 29.86 in1011.2 mb - 0.00 in0.0 mm 0.03 in0.8 mm
07:20 AM 51.5°F10.8°C 46.9°F8.3°C 84% 1.2 mph NW1.9 kmh NW 2.3 mph3.7 kmh 29.85 in1010.8 mb - 0.00 in0.0 mm 0.03 in0.8 mm
07:10 AM 51.5°F10.8°C 46.8°F8.2°C 84% 1.2 mph W1.9 kmh W 2.3 mph3.7 kmh 29.86 in1011.2 mb - 0.00 in0.0 mm 0.03 in0.8 mm
07:00 AM 51.5°F10.8°C 46.5°F8.1°C 83% 2.3 mph W3.7 kmh W 3.5 mph5.6 kmh 29.86 in1011.2 mb - 0.00 in0.0 mm 0.03 in0.8 mm
06:50 AM 51.7°F10.9°C 46.4°F8.0°C 82% 2.3 mph NW3.7 kmh NW 4.6 mph7.4 kmh 29.85 in1010.8 mb - 0.01 in0.3 mm 0.03 in0.8 mm
06:40 AM 52.2°F11.2°C 46.3°F7.9°C 80% 4.6 mph W7.4 kmh W 9.2 mph14.8 kmh 29.84 in1010.5 mb - 0.03 in0.8 mm 0.03 in0.8 mm
06:30 AM 52.5°F11.4°C 45.8°F7.7°C 78% 4.6 mph WSW7.4 kmh WSW 9.2 mph14.8 kmh 29.83 in1010.2 mb - 0.00 in0.0 mm 0.00 in0.0 mm
06:20 AM 52.8°F11.6°C 46.5°F8.1°C 79% 2.3 mph NW3.7 kmh NW 4.6 mph7.4 kmh 29.81 in1009.5 mb - 0.00 in0.0 mm 0.00 in0.0 mm
06:10 AM 53.2°F11.8°C 46.9°F8.3°C 79% 3.5 mph WSW5.6 kmh WSW 5.8 mph9.3 kmh 29.79 in1008.8 mb - 0.00 in0.0 mm 0.00 in0.0 mm
06:00 AM 53.6°F12.0°C 47.3°F8.5°C 79% 4.6 mph W7.4 kmh W 4.6 mph7.4 kmh 29.79 in1008.8 mb - 0.00 in0.0 mm 0.00 in0.0 mm
05:50 AM 54.1°F12.3°C 48.1°F8.9°C 80% 6.9 mph W11.1 kmh W 11.5 mph18.5 kmh 29.79 in1008.8 mb - 0.00 in0.0 mm 0.00 in0.0 mm
05:40 AM 54.8°F12.7°C 47.7°F8.7°C 77% 3.5 mph SW5.6 kmh SW 5.8 mph9.3 kmh 29.77 in1008.1 mb - 0.00 in0.0 mm 0.00 in0.0 mm
05:30 AM 55.5°F13.1°C 47.7°F8.7°C 75% 4.6 mph WSW7.4 kmh WSW 8.1 mph13.0 kmh 29.77 in1008.1 mb - 0.00 in0.0 mm 0.00 in0.0 mm
05:20 AM 56.2°F13.4°C 45.8°F7.7°C 68% 3.5 mph W5.6 kmh W 5.8 mph9.3 kmh 29.76 in1007.8 mb - 0.00 in0.0 mm 0.00 in0.0 mm
05:10 AM 57.3°F14.1°C 45.2°F7.3°C 64% 4.6 mph WNW7.4 kmh WNW 6.9 mph11.1 kmh 29.76 in1007.8 mb - 0.00 in0.0 mm 0.00 in0.0 mm
05:00 AM 59.0°F15.0°C 44.7°F7.1°C 59% 2.3 mph W3.7 kmh W 3.5 mph5.6 kmh 29.76 in1007.8 mb - 0.00 in0.0 mm 0.00 in0.0 mm
04:50 AM 61.3°F16.3°C 45.5°F7.5°C 56% 4.6 mph WSW7.4 kmh WSW 6.9 mph11.1 kmh 29.75 in1007.5 mb - 0.00 in0.0 mm 0.00 in0.0 mm
04:40 AM 61.3°F16.3°C 45.5°F7.5°C 56% 6.9 mph SW11.1 kmh SW 11.5 mph18.5 kmh 29.74 in1007.1 mb - 0.00 in0.0 mm 0.00 in0.0 mm
04:30 AM 61.1°F16.2°C 47.1°F8.4°C 60% 2.3 mph SW3.7 kmh SW 4.6 mph7.4 kmh 29.74 in1007.1 mb - 0.00 in0.0 mm 0.00 in0.0 mm
04:20 AM 61.1°F16.2°C 47.1°F8.4°C 60% Calm Calm 1.2 mph1.9 kmh 29.74 in1007.1 mb - 0.00 in0.0 mm 0.00 in0.0 mm
04:10 AM 61.0°F16.1°C 47.0°F8.3°C 60% 2.3 mph WSW3.7 kmh WSW 3.5 mph5.6 kmh 29.74 in1007.1 mb - 0.00 in0.0 mm 0.00 in0.0 mm
04:00 AM 60.7°F15.9°C 47.2°F8.4°C 61% 1.2 mph WSW1.9 kmh WSW 2.3 mph3.7 kmh 29.74 in1007.1 mb - 0.00 in0.0 mm 0.00 in0.0 mm
03:50 AM 60.6°F15.9°C 47.5°F8.6°C 62% 1.2 mph WSW1.9 kmh WSW 2.3 mph3.7 kmh 29.74 in1007.1 mb - 0.00 in0.0 mm 0.00 in0.0 mm
03:40 AM 60.0°F15.6°C 47.4°F8.6°C 63% 1.2 mph WSW1.9 kmh WSW 2.3 mph3.7 kmh 29.74 in1007.1 mb - 0.00 in0.0 mm 0.00 in0.0 mm
03:30 AM 59.6°F15.3°C 47.0°F8.3°C 63% Calm Calm -- 29.74 in1007.1 mb - 0.00 in0.0 mm 0.00 in0.0 mm
03:20 AM 59.5°F15.3°C 46.5°F8.1°C 62% Calm Calm 1.2 mph1.9 kmh 29.75 in1007.5 mb - 0.00 in0.0 mm 0.00 in0.0 mm
03:10 AM 59.5°F15.3°C 46.9°F8.3°C 63% Calm Calm -- 29.75 in1007.5 mb - 0.00 in0.0 mm 0.00 in0.0 mm
03:00 AM 59.5°F15.3°C 46.9°F8.3°C 63% Calm Calm 1.2 mph1.9 kmh 29.75 in1007.5 mb - 0.00 in0.0 mm 0.00 in0.0 mm
02:50 AM 59.5°F15.3°C 46.5°F8.1°C 62% Calm Calm -- 29.75 in1007.5 mb - 0.00 in0.0 mm 0.00 in0.0 mm
02:40 AM 59.7°F15.4°C 46.7°F8.2°C 62% Calm Calm -- 29.75 in1007.5 mb - 0.00 in0.0 mm 0.00 in0.0 mm
02:30 AM 59.7°F15.4°C 46.7°F8.2°C 62% Calm Calm -- 29.76 in1007.8 mb - 0.00 in0.0 mm 0.00 in0.0 mm
02:20 AM 59.8°F15.4°C 46.7°F8.2°C 62% Calm Calm -- 29.76 in1007.8 mb - 0.00 in0.0 mm 0.00 in0.0 mm
02:10 AM 59.9°F15.5°C 46.8°F8.2°C 62% Calm Calm -- 29.77 in1008.1 mb - 0.00 in0.0 mm 0.00 in0.0 mm
02:00 AM 59.9°F15.5°C 46.8°F8.2°C 62% Calm Calm 1.2 mph1.9 kmh 29.77 in1008.1 mb - 0.00 in0.0 mm 0.00 in0.0 mm
01:50 AM 60.1°F15.6°C 46.6°F8.1°C 61% Calm Calm -- 29.78 in1008.5 mb - 0.00 in0.0 mm 0.00 in0.0 mm
01:40 AM 60.2°F15.7°C 46.7°F8.2°C 61% Calm Calm -- 29.78 in1008.5 mb - 0.00 in0.0 mm 0.00 in0.0 mm
01:30 AM 60.6°F15.9°C 46.6°F8.1°C 60% Calm Calm -- 29.78 in1008.5 mb - 0.00 in0.0 mm 0.00 in0.0 mm
01:20 AM 61.0°F16.1°C 46.6°F8.1°C 59% Calm Calm -- 29.78 in1008.5 mb - 0.00 in0.0 mm 0.00 in0.0 mm
01:10 AM 61.2°F16.2°C 46.8°F8.2°C 59% Calm Calm 1.2 mph1.9 kmh 29.79 in1008.8 mb - 0.00 in0.0 mm 0.00 in0.0 mm
01:00 AM 61.8°F16.6°C 46.9°F8.3°C 58% Calm Calm -- 29.79 in1008.8 mb - 0.00 in0.0 mm 0.00 in0.0 mm
12:50 AM 62.1°F16.7°C 47.2°F8.4°C 58% Calm Calm -- 29.79 in1008.8 mb - 0.00 in0.0 mm 0.00 in0.0 mm
12:40 AM 62.5°F16.9°C 47.1°F8.4°C 57% Calm Calm 1.2 mph1.9 kmh 29.79 in1008.8 mb - 0.00 in0.0 mm 0.00 in0.0 mm
12:30 AM 63.1°F17.3°C 46.7°F8.2°C 55% 1.2 mph W1.9 kmh W 2.3 mph3.7 kmh 29.79 in1008.8 mb - 0.00 in0.0 mm 0.00 in0.0 mm
12:20 AM 63.9°F17.7°C 46.4°F8.0°C 53% Calm Calm -- 29.79 in1008.8 mb - 0.00 in0.0 mm 0.00 in0.0 mm
12:10 AM 64.3°F17.9°C 46.8°F8.2°C 53% Calm Calm 1.2 mph1.9 kmh 29.79 in1008.8 mb - 0.00 in0.0 mm 0.00 in0.0 mm
12:00 AM 64.9°F18.3°C 46.3°F7.9°C 51% Calm Calm -- 29.79 in1008.8 mb - 0.00 in0.0 mm 0.00 in0.0 mm